createdAt,value
2022-08-30T00:01:42.594Z,85.43
2022-08-30T00:04:18.532Z,85.35
2022-08-30T00:06:54.406Z,85.21
2022-08-30T00:09:32.286Z,85.35
2022-08-30T00:12:09.665Z,85.41
2022-08-30T00:14:45.724Z,85.50
2022-08-30T00:17:21.976Z,85.63
2022-08-30T00:19:58.046Z,85.66
2022-08-30T00:22:34.000Z,85.67
2022-08-30T00:25:12.637Z,85.66
2022-08-30T00:27:49.111Z,85.74
2022-08-30T00:30:26.214Z,85.80
2022-08-30T00:33:02.507Z,85.72
2022-08-30T00:35:40.061Z,85.64
2022-08-30T00:38:17.520Z,85.69
2022-08-30T00:40:54.448Z,85.73
2022-08-30T00:43:36.573Z,85.86
2022-08-30T00:46:13.899Z,85.86
2022-08-30T00:48:53.009Z,85.82
2022-08-30T00:51:29.243Z,85.82
2022-08-30T00:54:07.038Z,85.98
2022-08-30T00:56:43.240Z,86.01
2022-08-30T00:59:20.129Z,86.06
2022-08-30T01:01:56.730Z,86.14
2022-08-30T01:04:35.197Z,86.15
2022-08-30T01:07:12.080Z,86.09
2022-08-30T01:09:48.062Z,86.07
2022-08-30T01:12:24.694Z,86.00
2022-08-30T01:15:01.444Z,86.00
2022-08-30T01:17:39.002Z,86.00
2022-08-30T01:20:25.408Z,86.11
2022-08-30T01:23:17.039Z,86.25
2022-08-30T01:25:56.255Z,86.30
2022-08-30T01:28:34.237Z,86.30
2022-08-30T01:31:11.130Z,86.29
2022-08-30T01:33:47.665Z,86.30
2022-08-30T01:36:25.332Z,86.25
2022-08-30T01:39:02.571Z,86.20
2022-08-30T01:41:39.817Z,86.20
2022-08-30T01:44:17.445Z,86.25
2022-08-30T01:46:53.660Z,86.36
2022-08-30T01:49:29.925Z,86.39
2022-08-30T01:52:07.060Z,86.39
2022-08-30T01:54:46.732Z,86.36
2022-08-30T01:57:26.937Z,86.42
2022-08-30T02:00:03.167Z,86.40
2022-08-30T02:02:47.653Z,86.32
2022-08-30T02:05:24.015Z,86.33
2022-08-30T02:08:00.273Z,86.37
2022-08-30T02:10:37.031Z,86.39
2022-08-30T02:13:13.159Z,86.48
2022-08-30T02:15:49.193Z,86.62
2022-08-30T02:18:26.447Z,86.67
2022-08-30T02:21:02.418Z,86.69
2022-08-30T02:23:38.798Z,86.64
2022-08-30T02:26:16.423Z,86.88
2022-08-30T02:28:53.968Z,86.97
2022-08-30T02:31:31.255Z,87.00
2022-08-30T02:34:07.963Z,86.92
2022-08-30T02:36:44.249Z,86.96
2022-08-30T02:39:20.778Z,86.92
2022-08-30T02:41:57.054Z,86.90
2022-08-30T02:44:32.989Z,86.89
2022-08-30T02:47:09.334Z,86.89
2022-08-30T02:49:45.250Z,86.90
2022-08-30T02:52:25.942Z,86.88
2022-08-30T02:55:04.044Z,86.94
2022-08-30T02:57:40.722Z,87.11
2022-08-30T03:00:22.748Z,87.20
2022-08-30T03:02:59.143Z,87.21
2022-08-30T03:05:35.397Z,87.35
2022-08-30T03:08:16.335Z,87.48
2022-08-30T03:10:52.891Z,87.52
2022-08-30T03:13:29.861Z,87.66
2022-08-30T03:16:06.461Z,87.76
2022-08-30T03:18:43.345Z,87.93
2022-08-30T03:21:20.851Z,87.90
2022-08-30T03:23:56.966Z,87.90
2022-08-30T03:26:32.934Z,87.93
2022-08-30T03:29:09.705Z,87.84
2022-08-30T03:31:52.971Z,87.71
2022-08-30T03:34:30.568Z,87.60
2022-08-30T03:37:06.786Z,87.67
2022-08-30T03:39:45.390Z,87.73
2022-08-30T03:42:21.645Z,87.64
2022-08-30T03:45:01.533Z,87.60
2022-08-30T03:47:37.795Z,87.55
2022-08-30T03:50:19.046Z,87.49
2022-08-30T03:52:55.031Z,87.53
2022-08-30T03:55:32.403Z,87.58
2022-08-30T03:58:08.415Z,87.53
2022-08-30T04:00:44.487Z,87.54
2022-08-30T04:03:25.846Z,87.60
2022-08-30T04:06:02.298Z,87.60
2022-08-30T04:08:38.959Z,87.67
2022-08-30T04:11:16.540Z,87.81
2022-08-30T04:13:53.468Z,87.84
2022-08-30T04:16:29.890Z,88.01
2022-08-30T04:19:06.143Z,88.10
2022-08-30T04:21:43.709Z,88.10
2022-08-30T04:24:19.891Z,88.02
2022-08-30T04:26:55.856Z,88.10
2022-08-30T04:29:32.016Z,88.16
2022-08-30T04:32:08.894Z,88.14
2022-08-30T04:34:45.419Z,88.23
2022-08-30T04:37:21.384Z,88.43
2022-08-30T04:40:00.784Z,88.43
2022-08-30T04:42:39.083Z,88.31
2022-08-30T04:45:18.815Z,87.94
2022-08-30T04:47:56.401Z,86.63
2022-08-30T04:50:32.568Z,84.85
2022-08-30T04:53:08.891Z,83.77
2022-08-30T04:55:45.848Z,82.47
2022-08-30T04:58:21.972Z,80.84
2022-08-30T05:00:58.020Z,79.22
2022-08-30T05:03:34.082Z,77.76
2022-08-30T05:06:14.137Z,76.39
2022-08-30T05:08:50.881Z,75.06
2022-08-30T05:11:28.002Z,73.26
2022-08-30T05:14:04.352Z,71.78
2022-08-30T05:16:41.570Z,70.68
2022-08-30T05:19:17.779Z,69.19
2022-08-30T05:21:53.657Z,68.14
2022-08-30T05:24:29.718Z,66.77
2022-08-30T05:27:05.905Z,65.15
2022-08-30T05:29:41.923Z,64.03
2022-08-30T05:32:18.016Z,62.87
2022-08-30T05:34:54.068Z,61.46
2022-08-30T05:37:30.017Z,60.67
2022-08-30T05:40:10.972Z,60.22
2022-08-30T05:42:48.749Z,58.89
2022-08-30T05:45:25.302Z,58.55
2022-08-30T05:48:02.029Z,57.60
2022-08-30T05:50:39.900Z,56.81
2022-08-30T05:53:16.003Z,56.19
2022-08-30T05:55:52.002Z,55.20
2022-08-30T05:58:27.881Z,54.98
2022-08-30T06:01:04.871Z,53.51
2022-08-30T06:03:40.965Z,52.78
2022-08-30T06:06:17.166Z,52.61
2022-08-30T06:08:53.955Z,52.29
2022-08-30T06:11:31.254Z,51.40
2022-08-30T06:14:08.351Z,50.71
2022-08-30T06:16:46.098Z,50.26
2022-08-30T06:19:23.309Z,50.13
2022-08-30T06:22:01.147Z,50.21
2022-08-30T06:24:56.530Z,50.59
2022-08-30T06:27:33.341Z,51.10
2022-08-30T06:30:13.724Z,51.96
2022-08-30T06:32:49.722Z,52.41
2022-08-30T06:35:26.212Z,52.58
2022-08-30T06:38:02.815Z,52.24
2022-08-30T06:40:40.596Z,52.26
2022-08-30T06:43:16.557Z,51.60
2022-08-30T06:45:52.813Z,51.38
2022-08-30T06:48:28.806Z,50.77
2022-08-30T06:51:05.143Z,51.26
2022-08-30T06:53:42.227Z,51.89
2022-08-30T06:56:19.585Z,52.31
2022-08-30T06:58:56.079Z,52.21
2022-08-30T07:01:34.154Z,51.96
2022-08-30T07:04:12.955Z,52.37
2022-08-30T07:06:50.009Z,52.15
2022-08-30T07:09:29.409Z,52.13
2022-08-30T07:12:11.066Z,52.06
2022-08-30T07:14:47.395Z,52.52
2022-08-30T07:17:41.620Z,52.02
2022-08-30T07:20:18.757Z,52.23
2022-08-30T07:22:54.889Z,51.89
2022-08-30T07:25:30.808Z,51.36
2022-08-30T07:28:07.602Z,52.05
2022-08-30T07:30:45.307Z,52.66
2022-08-30T07:33:21.247Z,52.37
2022-08-30T07:35:57.220Z,52.38
2022-08-30T07:38:33.909Z,51.98
2022-08-30T07:41:10.543Z,51.94
2022-08-30T07:43:46.478Z,51.83
2022-08-30T07:46:24.336Z,51.27
2022-08-30T07:49:04.160Z,50.69
2022-08-30T07:51:41.939Z,50.27
2022-08-30T07:54:18.314Z,49.26
2022-08-30T07:56:56.005Z,49.54
2022-08-30T07:59:35.582Z,49.30
2022-08-30T08:02:12.466Z,49.29
2022-08-30T08:04:48.928Z,49.09
2022-08-30T08:07:24.946Z,48.72
2022-08-30T08:10:01.044Z,48.44
2022-08-30T08:12:37.883Z,48.36
2022-08-30T08:15:15.625Z,48.57
2022-08-30T08:17:51.557Z,49.06
2022-08-30T08:20:27.991Z,48.70
2022-08-30T08:23:05.351Z,48.29
2022-08-30T08:25:44.115Z,48.59
2022-08-30T08:28:20.896Z,48.48
2022-08-30T08:30:57.617Z,47.88
2022-08-30T08:33:33.635Z,48.31
2022-08-30T08:36:10.381Z,47.69
2022-08-30T08:38:46.766Z,47.94
2022-08-30T08:41:43.148Z,47.48
2022-08-30T08:44:36.216Z,47.81
2022-08-30T08:47:22.332Z,47.71
2022-08-30T08:50:04.155Z,47.58
2022-08-30T08:53:24.874Z,47.68
2022-08-30T08:56:12.821Z,48.76
2022-08-30T08:58:53.929Z,48.16
2022-08-30T09:01:34.043Z,48.11
2022-08-30T09:04:20.728Z,48.27
2022-08-30T09:07:04.101Z,48.58
2022-08-30T09:09:42.722Z,48.56
2022-08-30T09:12:19.442Z,48.11
2022-08-30T09:15:03.852Z,48.31
2022-08-30T09:17:59.345Z,48.73
2022-08-30T09:20:41.587Z,48.62
2022-08-30T09:23:37.151Z,48.98
2022-08-30T09:26:13.900Z,49.33
2022-08-30T09:28:54.463Z,50.41
2022-08-30T09:31:33.659Z,51.16
2022-08-30T09:34:19.463Z,51.38
2022-08-30T09:36:57.694Z,52.22
2022-08-30T09:39:39.579Z,52.37
2022-08-30T09:42:26.466Z,53.66
2022-08-30T09:45:11.963Z,54.24
2022-08-30T09:47:49.077Z,54.86
2022-08-30T09:50:28.395Z,55.03
2022-08-30T09:53:23.459Z,54.99
2022-08-30T09:56:12.965Z,55.71
2022-08-30T09:59:10.170Z,54.40
2022-08-30T10:01:54.596Z,53.67
2022-08-30T10:04:48.317Z,52.72
2022-08-30T10:07:35.181Z,52.96
2022-08-30T10:10:23.121Z,52.08
2022-08-30T10:13:27.369Z,52.76
2022-08-30T10:16:22.858Z,52.74
2022-08-30T10:19:20.044Z,52.70
2022-08-30T10:22:06.071Z,52.65
2022-08-30T10:24:51.522Z,52.55
2022-08-30T10:27:35.312Z,52.04
2022-08-30T10:30:16.680Z,51.74
2022-08-30T10:32:59.846Z,52.80
2022-08-30T10:35:41.799Z,52.87
2022-08-30T10:38:27.848Z,52.87
2022-08-30T10:41:22.037Z,52.91
2022-08-30T10:44:07.722Z,53.02
2022-08-30T10:47:03.726Z,51.91
2022-08-30T10:49:45.941Z,52.07
2022-08-30T10:52:37.702Z,52.37
2022-08-30T10:55:24.250Z,53.15
2022-08-30T10:58:05.271Z,52.41
2022-08-30T11:00:57.034Z,52.67
2022-08-30T11:08:22.189Z,51.66
2022-08-30T11:11:13.450Z,52.65
2022-08-30T11:13:53.545Z,53.18
2022-08-30T11:16:46.578Z,54.26
2022-08-30T11:19:35.927Z,54.58
2022-08-30T11:22:28.899Z,55.48
2022-08-30T11:25:15.904Z,55.47
2022-08-30T11:27:58.915Z,54.59
2022-08-30T11:31:07.228Z,54.44
2022-08-30T11:33:55.451Z,54.29
2022-08-30T11:37:12.268Z,53.83
2022-08-30T11:40:06.638Z,54.47
2022-08-30T11:42:52.921Z,55.44
2022-08-30T11:45:55.739Z,54.42
2022-08-30T11:48:57.856Z,54.33
2022-08-30T11:52:26.549Z,54.54
2022-08-30T11:55:56.579Z,54.45
2022-08-30T11:58:51.796Z,54.47
2022-08-30T12:01:49.953Z,55.34
2022-08-30T12:04:48.550Z,55.82
2022-08-30T12:08:01.717Z,54.64
2022-08-30T12:10:47.029Z,54.38
2022-08-30T12:13:59.193Z,55.29
2022-08-30T12:17:03.509Z,55.24
2022-08-30T12:19:49.122Z,54.93
2022-08-30T12:22:28.959Z,54.59
2022-08-30T12:25:21.396Z,54.80
2022-08-30T12:28:15.531Z,52.52
2022-08-30T12:30:53.092Z,51.77
2022-08-30T12:33:44.257Z,51.79
2022-08-30T12:36:40.477Z,52.53
2022-08-30T12:39:23.083Z,52.48
2022-08-30T12:42:11.506Z,52.62
2022-08-30T12:44:58.474Z,51.73
2022-08-30T12:47:45.349Z,51.12
2022-08-30T12:50:28.637Z,51.45
2022-08-30T12:53:13.705Z,51.57
2022-08-30T12:56:02.155Z,51.59
2022-08-30T12:58:50.312Z,52.61
2022-08-30T13:01:35.838Z,51.02
2022-08-30T13:04:29.121Z,50.98
2022-08-30T13:07:06.298Z,51.33
2022-08-30T13:09:45.552Z,51.90
2022-08-30T13:12:30.359Z,51.67
2022-08-30T13:15:36.723Z,49.89
2022-08-30T13:18:30.135Z,51.52
2022-08-30T13:21:32.562Z,49.96
2022-08-30T13:24:11.029Z,50.34
2022-08-30T13:26:48.071Z,50.89
2022-08-30T13:29:28.462Z,50.37
2022-08-30T13:32:05.374Z,50.70
2022-08-30T13:34:41.910Z,51.25
2022-08-30T13:40:23.892Z,50.93
2022-08-30T13:43:00.368Z,51.39
2022-08-30T13:45:43.761Z,51.11
2022-08-30T13:48:24.892Z,50.91
2022-08-30T13:51:01.362Z,50.29
2022-08-30T13:53:54.599Z,50.04
2022-08-30T13:56:32.799Z,50.02
2022-08-30T13:59:10.709Z,49.99
2022-08-30T14:04:43.498Z,50.06
2022-08-30T14:07:21.051Z,49.50
2022-08-30T14:10:30.467Z,49.89
2022-08-30T14:12:58.841Z,49.89
2022-08-30T14:15:41.454Z,49.77
2022-08-30T14:18:18.099Z,49.57
2022-08-30T14:20:54.663Z,50.26
2022-08-30T14:23:32.133Z,50.54
2022-08-30T14:26:18.127Z,50.79
2022-08-30T14:28:54.400Z,50.95
2022-08-30T14:31:32.817Z,51.49
2022-08-30T14:34:12.013Z,50.89
2022-08-30T14:36:49.579Z,51.11
2022-08-30T14:39:26.382Z,52.11
2022-08-30T14:42:03.470Z,52.03
2022-08-30T14:44:55.722Z,51.33
2022-08-30T14:47:32.005Z,51.31
2022-08-30T14:50:10.126Z,51.66
2022-08-30T14:52:46.316Z,52.40
2022-08-30T14:55:23.081Z,52.87
2022-08-30T14:57:59.730Z,52.57
2022-08-30T15:00:35.720Z,52.56
2022-08-30T15:03:12.689Z,52.89
2022-08-30T15:05:53.892Z,53.19
2022-08-30T15:08:30.080Z,53.17
2022-08-30T15:11:10.627Z,53.56
2022-08-30T15:13:47.201Z,53.23
2022-08-30T15:16:28.255Z,54.18
2022-08-30T15:19:08.322Z,52.84
2022-08-30T15:21:48.800Z,51.03
2022-08-30T15:24:29.447Z,50.75
2022-08-30T15:27:06.751Z,51.44
2022-08-30T15:29:42.627Z,51.84
2022-08-30T15:32:18.540Z,52.85
2022-08-30T15:34:56.045Z,53.67
2022-08-30T15:37:32.266Z,53.88
2022-08-30T15:40:10.860Z,54.19
2022-08-30T15:42:47.680Z,54.76
2022-08-30T15:45:25.620Z,55.45
2022-08-30T15:48:03.711Z,55.78
2022-08-30T15:50:40.388Z,55.92
2022-08-30T15:53:16.705Z,56.42
2022-08-30T15:55:53.501Z,56.50
2022-08-30T15:58:29.754Z,56.51
2022-08-30T16:01:06.205Z,57.08
2022-08-30T16:03:44.872Z,57.26
2022-08-30T16:06:25.631Z,57.20
2022-08-30T16:09:03.825Z,56.80
2022-08-30T16:11:42.104Z,56.35
2022-08-30T16:14:17.957Z,55.97
2022-08-30T16:16:57.477Z,55.62
2022-08-30T16:19:33.726Z,55.66
2022-08-30T16:22:11.486Z,55.70
2022-08-30T16:24:48.289Z,56.12
2022-08-30T16:27:25.043Z,56.26
2022-08-30T16:30:01.297Z,56.52
2022-08-30T16:32:37.565Z,56.97
2022-08-30T16:35:14.710Z,57.04
2022-08-30T16:37:50.609Z,57.44
2022-08-30T16:40:26.810Z,57.62
2022-08-30T16:43:03.956Z,57.92
2022-08-30T16:45:45.432Z,58.04
2022-08-30T16:48:21.802Z,58.24
2022-08-30T16:50:58.728Z,58.44
2022-08-30T16:53:35.050Z,58.87
2022-08-30T16:56:17.374Z,59.14
2022-08-30T16:59:00.766Z,59.19
2022-08-30T17:01:41.229Z,59.42
2022-08-30T17:04:18.323Z,59.90
2022-08-30T17:06:56.335Z,60.20
2022-08-30T17:09:35.718Z,60.33
2022-08-30T17:12:12.548Z,60.64
2022-08-30T17:14:51.475Z,60.89
2022-08-30T17:17:27.494Z,61.19
2022-08-30T17:20:07.020Z,61.65
2022-08-30T17:22:43.029Z,62.01
2022-08-30T17:25:22.326Z,62.25
2022-08-30T17:27:58.564Z,62.66
2022-08-30T17:30:34.696Z,63.29
2022-08-30T17:33:11.438Z,64.62
2022-08-30T17:35:49.081Z,65.58
2022-08-30T17:38:26.729Z,65.41
2022-08-30T17:41:11.975Z,65.48
2022-08-30T17:43:47.962Z,65.80
2022-08-30T17:46:25.210Z,66.10
2022-08-30T17:49:03.390Z,66.25
2022-08-30T17:51:43.273Z,66.52
2022-08-30T17:54:22.285Z,66.85
2022-08-30T17:57:10.713Z,67.15
2022-08-30T17:59:47.947Z,67.14
2022-08-30T18:02:29.897Z,67.27
2022-08-30T18:05:06.966Z,67.38
2022-08-30T18:07:43.559Z,67.53
2022-08-30T18:10:19.788Z,67.80
2022-08-30T18:13:06.871Z,67.93
2022-08-30T18:18:40.199Z,68.31
2022-08-30T18:21:22.122Z,68.54
2022-08-30T18:23:59.072Z,68.64
2022-08-30T18:26:35.694Z,68.83
2022-08-30T18:29:12.060Z,69.04
2022-08-30T18:31:48.508Z,69.17
2022-08-30T18:34:24.465Z,69.29
2022-08-30T18:37:01.105Z,69.42
2022-08-30T18:39:37.650Z,69.63
2022-08-30T18:42:14.732Z,69.77
2022-08-30T18:44:50.730Z,69.84
2022-08-30T18:47:28.181Z,69.91
2022-08-30T18:50:04.597Z,70.13
2022-08-30T18:52:41.361Z,70.16
2022-08-30T18:55:21.627Z,69.85
2022-08-30T18:57:58.045Z,69.74
2022-08-30T19:00:38.417Z,69.52
2022-08-30T19:03:15.281Z,69.30
2022-08-30T19:05:51.500Z,69.08
2022-08-30T19:08:27.688Z,68.86
2022-08-30T19:11:07.437Z,68.76
2022-08-30T19:13:43.763Z,68.86
2022-08-30T19:16:19.906Z,68.88
2022-08-30T19:18:56.370Z,68.92
2022-08-30T19:21:32.771Z,69.08
2022-08-30T19:24:11.574Z,69.18
2022-08-30T19:26:48.093Z,69.23
2022-08-30T19:29:24.178Z,69.33
2022-08-30T19:32:00.384Z,69.48
2022-08-30T19:34:36.445Z,69.62
2022-08-30T19:37:14.621Z,69.77
2022-08-30T19:39:52.716Z,69.88
2022-08-30T19:42:29.594Z,70.15
2022-08-30T19:45:07.265Z,70.32
2022-08-30T19:47:43.815Z,70.48
2022-08-30T19:50:22.319Z,70.56
2022-08-30T19:52:58.447Z,70.82
2022-08-30T19:55:37.183Z,71.06
2022-08-30T19:58:13.564Z,71.06
2022-08-30T20:00:54.463Z,71.21
2022-08-30T20:03:47.063Z,71.50
2022-08-30T20:06:23.655Z,71.75
2022-08-30T20:09:00.574Z,71.93
2022-08-30T20:11:37.335Z,72.21
2022-08-30T20:14:14.022Z,72.45
2022-08-30T20:16:51.581Z,72.73
2022-08-30T20:19:29.329Z,73.00
2022-08-30T20:22:08.332Z,73.27
2022-08-30T20:24:26.634Z,68.05
2022-08-30T20:24:45.175Z,73.40
2022-08-30T20:27:21.349Z,73.70
2022-08-30T20:29:57.557Z,73.89
2022-08-30T20:32:34.774Z,74.20
2022-08-30T20:35:13.098Z,74.42
2022-08-30T20:37:50.880Z,74.47
2022-08-30T20:40:27.454Z,74.68
2022-08-30T20:43:07.272Z,75.20
2022-08-30T20:45:43.254Z,75.63
2022-08-30T20:48:20.684Z,75.88
2022-08-30T20:50:56.847Z,76.12
2022-08-30T20:53:33.270Z,76.32
2022-08-30T20:56:17.707Z,76.54
2022-08-30T20:58:54.013Z,76.85
2022-08-30T21:01:30.976Z,77.09
2022-08-30T21:04:08.343Z,77.37
2022-08-30T21:06:44.437Z,77.55
2022-08-30T21:09:21.053Z,77.72
2022-08-30T21:11:57.134Z,77.94
2022-08-30T21:14:33.337Z,78.06
2022-08-30T21:17:09.615Z,78.16
2022-08-30T21:19:46.426Z,78.44
2022-08-30T21:22:22.403Z,78.65
2022-08-30T21:24:58.641Z,78.81
2022-08-30T21:27:34.372Z,79.00
2022-08-30T21:30:13.973Z,78.95
2022-08-30T21:32:49.929Z,78.94
2022-08-30T21:35:43.603Z,78.82
2022-08-30T21:38:21.012Z,78.94
2022-08-30T21:40:57.645Z,79.13
2022-08-30T21:43:33.892Z,79.31
2022-08-30T21:46:13.464Z,79.22
2022-08-30T21:48:51.048Z,78.65
2022-08-30T21:51:26.985Z,78.53
2022-08-30T21:54:07.159Z,78.53
2022-08-30T21:56:47.534Z,78.60
2022-08-30T21:59:24.328Z,78.50
2022-08-30T22:02:01.410Z,78.52
2022-08-30T22:04:37.573Z,78.52
2022-08-30T22:07:13.962Z,78.38
2022-08-30T22:09:50.019Z,78.35
2022-08-30T22:12:26.752Z,78.55
2022-08-30T22:15:03.745Z,78.89
2022-08-30T22:17:39.802Z,79.04
2022-08-30T22:20:18.634Z,79.20
2022-08-30T22:22:54.947Z,79.40
2022-08-30T22:25:31.205Z,79.67
2022-08-30T22:28:07.896Z,79.85
2022-08-30T22:30:44.019Z,80.00
2022-08-30T22:33:21.566Z,80.09
2022-08-30T22:35:57.966Z,80.14
2022-08-30T22:38:34.362Z,80.31
2022-08-30T22:41:17.679Z,80.43
2022-08-30T22:43:54.810Z,80.56
2022-08-30T22:46:34.168Z,80.57
2022-08-30T22:49:13.828Z,80.65
2022-08-30T22:51:49.835Z,80.76
2022-08-30T22:54:26.005Z,80.98
2022-08-30T22:57:01.901Z,81.09
2022-08-30T22:59:40.790Z,81.33
2022-08-30T23:02:16.957Z,81.48
2022-08-30T23:04:53.654Z,81.61
2022-08-30T23:07:29.801Z,81.62
2022-08-30T23:10:08.112Z,81.76
2022-08-30T23:12:44.569Z,81.96
2022-08-30T23:15:21.188Z,82.12
2022-08-30T23:17:57.060Z,82.25
2022-08-30T23:20:32.976Z,82.45
2022-08-30T23:23:07.793Z,82.51
2022-08-30T23:26:02.820Z,82.50
2022-08-30T23:28:56.317Z,82.57
2022-08-30T23:31:50.642Z,82.70
2022-08-30T23:34:44.164Z,82.68
2022-08-30T23:37:37.811Z,82.61
2022-08-30T23:40:34.385Z,82.64
2022-08-30T23:43:28.612Z,82.80
2022-08-30T23:46:22.847Z,82.99
2022-08-30T23:49:16.892Z,83.13
2022-08-30T23:52:10.825Z,83.24
2022-08-30T23:55:04.368Z,83.21
2022-08-30T23:57:57.800Z,83.23
